sensor_id;sensor_type;location;lat;lon;timestamp;temperature;humidity
35258;DHT22;21385;50.878;8.050;2022-08-01T00:01:04;20.20;99.90
35258;DHT22;21385;50.878;8.050;2022-08-01T00:03:30;20.20;99.90
35258;DHT22;21385;50.878;8.050;2022-08-01T00:05:56;20.20;99.90
35258;DHT22;21385;50.878;8.050;2022-08-01T00:08:21;20.20;99.90
35258;DHT22;21385;50.878;8.050;2022-08-01T00:10:47;20.20;99.90
35258;DHT22;21385;50.878;8.050;2022-08-01T00:13:12;20.20;99.90
35258;DHT22;21385;50.878;8.050;2022-08-01T00:15:38;20.20;99.90
35258;DHT22;21385;50.878;8.050;2022-08-01T00:18:04;20.20;99.90
35258;DHT22;21385;50.878;8.050;2022-08-01T00:20:29;20.30;99.90
35258;DHT22;21385;50.878;8.050;2022-08-01T00:22:55;20.30;99.90
35258;DHT22;21385;50.878;8.050;2022-08-01T00:25:20;20.20;99.90
35258;DHT22;21385;50.878;8.050;2022-08-01T00:27:46;20.30;99.90
35258;DHT22;21385;50.878;8.050;2022-08-01T00:30:12;20.30;99.90
35258;DHT22;21385;50.878;8.050;2022-08-01T00:32:37;20.20;99.90
35258;DHT22;21385;50.878;8.050;2022-08-01T00:35:03;20.20;99.90
35258;DHT22;21385;50.878;8.050;2022-08-01T00:37:29;20.10;99.90
35258;DHT22;21385;50.878;8.050;2022-08-01T00:39:54;20.10;99.90
35258;DHT22;21385;50.878;8.050;2022-08-01T00:42:20;20.20;99.90
35258;DHT22;21385;50.878;8.050;2022-08-01T00:44:45;20.20;99.90
35258;DHT22;21385;50.878;8.050;2022-08-01T00:47:11;20.10;99.90
35258;DHT22;21385;50.878;8.050;2022-08-01T00:49:37;20.10;99.90
35258;DHT22;21385;50.878;8.050;2022-08-01T00:52:03;20.10;99.90
35258;DHT22;21385;50.878;8.050;2022-08-01T00:54:30;20.10;99.90
35258;DHT22;21385;50.878;8.050;2022-08-01T00:56:56;20.10;99.90
35258;DHT22;21385;50.878;8.050;2022-08-01T00:59:23;20.10;99.90
35258;DHT22;21385;50.878;8.050;2022-08-01T01:01:49;20.10;99.90
35258;DHT22;21385;50.878;8.050;2022-08-01T01:04:15;20.10;99.90
35258;DHT22;21385;50.878;8.050;2022-08-01T01:07:35;20.10;99.90
35258;DHT22;21385;50.878;8.050;2022-08-01T01:15:02;20.10;99.90
35258;DHT22;21385;50.878;8.050;2022-08-01T01:17:36;20.10;99.90
35258;DHT22;21385;50.878;8.050;2022-08-01T01:20:03;20.00;99.90
35258;DHT22;21385;50.878;8.050;2022-08-01T01:28:12;20.00;99.90
35258;DHT22;21385;50.878;8.050;2022-08-01T01:30:42;20.10;99.90
35258;DHT22;21385;50.878;8.050;2022-08-01T01:33:11;20.00;99.90
35258;DHT22;21385;50.878;8.050;2022-08-01T01:35:42;20.00;99.90
35258;DHT22;21385;50.878;8.050;2022-08-01T01:38:28;20.00;99.90
35258;DHT22;21385;50.878;8.050;2022-08-01T01:40:55;20.00;99.90
35258;DHT22;21385;50.878;8.050;2022-08-01T01:43:23;19.90;99.90
35258;DHT22;21385;50.878;8.050;2022-08-01T01:45:50;19.90;99.90
35258;DHT22;21385;50.878;8.050;2022-08-01T01:48:19;19.90;99.90
35258;DHT22;21385;50.878;8.050;2022-08-01T01:50:46;19.90;99.90
35258;DHT22;21385;50.878;8.050;2022-08-01T01:53:14;19.90;99.90
35258;DHT22;21385;50.878;8.050;2022-08-01T01:55:41;19.90;99.90
35258;DHT22;21385;50.878;8.050;2022-08-01T01:58:12;19.90;99.90
35258;DHT22;21385;50.878;8.050;2022-08-01T02:00:39;19.90;99.90
35258;DHT22;21385;50.878;8.050;2022-08-01T02:03:07;19.90;99.90
35258;DHT22;21385;50.878;8.050;2022-08-01T02:05:34;19.80;99.90
35258;DHT22;21385;50.878;8.050;2022-08-01T02:08:02;19.80;99.90
35258;DHT22;21385;50.878;8.050;2022-08-01T02:10:31;19.80;99.90
35258;DHT22;21385;50.878;8.050;2022-08-01T02:13:03;19.70;99.90
35258;DHT22;21385;50.878;8.050;2022-08-01T02:15:30;19.70;99.90
35258;DHT22;21385;50.878;8.050;2022-08-01T02:17:57;19.80;99.90
35258;DHT22;21385;50.878;8.050;2022-08-01T02:20:24;19.70;99.90
35258;DHT22;21385;50.878;8.050;2022-08-01T02:22:55;19.70;99.90
35258;DHT22;21385;50.878;8.050;2022-08-01T02:25:26;19.60;99.90
35258;DHT22;21385;50.878;8.050;2022-08-01T02:30:33;19.60;99.90
35258;DHT22;21385;50.878;8.050;2022-08-01T02:33:03;19.60;99.90
35258;DHT22;21385;50.878;8.050;2022-08-01T02:35:33;19.50;99.90
35258;DHT22;21385;50.878;8.050;2022-08-01T02:38:01;19.60;99.90
35258;DHT22;21385;50.878;8.050;2022-08-01T02:40:32;19.60;99.90
35258;DHT22;21385;50.878;8.050;2022-08-01T02:43:00;19.60;99.90
35258;DHT22;21385;50.878;8.050;2022-08-01T02:45:27;19.70;99.90
35258;DHT22;21385;50.878;8.050;2022-08-01T02:48:07;19.70;99.90
35258;DHT22;21385;50.878;8.050;2022-08-01T02:50:36;19.70;99.90
35258;DHT22;21385;50.878;8.050;2022-08-01T02:53:05;19.70;99.90
35258;DHT22;21385;50.878;8.050;2022-08-01T02:55:34;19.60;99.90
35258;DHT22;21385;50.878;8.050;2022-08-01T02:58:01;19.70;99.90
35258;DHT22;21385;50.878;8.050;2022-08-01T03:00:29;19.60;99.90
35258;DHT22;21385;50.878;8.050;2022-08-01T03:02:57;19.60;99.90
35258;DHT22;21385;50.878;8.050;2022-08-01T03:05:24;19.60;99.90
35258;DHT22;21385;50.878;8.050;2022-08-01T03:07:51;19.50;99.90
35258;DHT22;21385;50.878;8.050;2022-08-01T03:10:18;19.60;99.90
35258;DHT22;21385;50.878;8.050;2022-08-01T03:12:45;19.60;99.90
35258;DHT22;21385;50.878;8.050;2022-08-01T03:15:12;19.50;99.90
35258;DHT22;21385;50.878;8.050;2022-08-01T03:17:41;19.40;99.90
35258;DHT22;21385;50.878;8.050;2022-08-01T03:20:11;19.50;99.90
35258;DHT22;21385;50.878;8.050;2022-08-01T03:22:39;19.40;99.90
35258;DHT22;21385;50.878;8.050;2022-08-01T03:25:06;19.40;99.90
35258;DHT22;21385;50.878;8.050;2022-08-01T03:27:33;19.40;99.90
35258;DHT22;21385;50.878;8.050;2022-08-01T03:30:03;19.40;99.90
35258;DHT22;21385;50.878;8.050;2022-08-01T03:32:30;19.40;99.90
35258;DHT22;21385;50.878;8.050;2022-08-01T03:34:56;19.40;99.90
35258;DHT22;21385;50.878;8.050;2022-08-01T03:37:27;19.40;99.90
35258;DHT22;21385;50.878;8.050;2022-08-01T03:39:58;19.40;99.90
35258;DHT22;21385;50.878;8.050;2022-08-01T03:42:33;19.40;99.90
35258;DHT22;21385;50.878;8.050;2022-08-01T03:45:08;19.40;99.90
35258;DHT22;21385;50.878;8.050;2022-08-01T03:47:42;19.40;99.90
35258;DHT22;21385;50.878;8.050;2022-08-01T03:50:10;19.40;99.90
35258;DHT22;21385;50.878;8.050;2022-08-01T03:52:38;19.50;99.90
35258;DHT22;21385;50.878;8.050;2022-08-01T03:55:06;19.50;99.90
35258;DHT22;21385;50.878;8.050;2022-08-01T03:57:33;19.50;99.90
35258;DHT22;21385;50.878;8.050;2022-08-01T04:00:00;19.60;99.90
35258;DHT22;21385;50.878;8.050;2022-08-01T04:02:29;19.50;99.90
35258;DHT22;21385;50.878;8.050;2022-08-01T04:04:55;19.50;99.90
35258;DHT22;21385;50.878;8.050;2022-08-01T04:07:26;19.50;99.90
35258;DHT22;21385;50.878;8.050;2022-08-01T04:09:52;19.40;99.90
35258;DHT22;21385;50.878;8.050;2022-08-01T04:12:18;19.40;99.90
35258;DHT22;21385;50.878;8.050;2022-08-01T04:14:44;19.40;99.90
35258;DHT22;21385;50.878;8.050;2022-08-01T04:17:10;19.30;99.90
35258;DHT22;21385;50.878;8.050;2022-08-01T04:19:36;19.40;99.90
35258;DHT22;21385;50.878;8.050;2022-08-01T04:22:01;19.30;99.90
35258;DHT22;21385;50.878;8.050;2022-08-01T04:24:28;19.40;99.90
35258;DHT22;21385;50.878;8.050;2022-08-01T04:26:58;19.40;99.90
35258;DHT22;21385;50.878;8.050;2022-08-01T04:29:25;19.40;99.90
35258;DHT22;21385;50.878;8.050;2022-08-01T04:31:54;19.40;99.90
35258;DHT22;21385;50.878;8.050;2022-08-01T04:34:23;19.30;99.90
35258;DHT22;21385;50.878;8.050;2022-08-01T04:36:51;19.30;99.90
35258;DHT22;21385;50.878;8.050;2022-08-01T04:39:18;19.30;99.90
35258;DHT22;21385;50.878;8.050;2022-08-01T04:41:46;19.30;99.90
35258;DHT22;21385;50.878;8.050;2022-08-01T04:44:13;19.30;99.90
35258;DHT22;21385;50.878;8.050;2022-08-01T04:46:39;19.30;99.90
35258;DHT22;21385;50.878;8.050;2022-08-01T04:49:06;19.30;99.90
35258;DHT22;21385;50.878;8.050;2022-08-01T04:51:34;19.30;99.90
35258;DHT22;21385;50.878;8.050;2022-08-01T04:54:00;19.40;99.90
35258;DHT22;21385;50.878;8.050;2022-08-01T04:56:26;19.40;99.90
35258;DHT22;21385;50.878;8.050;2022-08-01T04:58:52;19.40;99.90
35258;DHT22;21385;50.878;8.050;2022-08-01T05:01:38;19.40;99.90
35258;DHT22;21385;50.878;8.050;2022-08-01T05:04:03;19.40;99.90
35258;DHT22;21385;50.878;8.050;2022-08-01T05:06:29;19.40;99.90
35258;DHT22;21385;50.878;8.050;2022-08-01T05:08:54;19.40;99.90
35258;DHT22;21385;50.878;8.050;2022-08-01T05:11:20;19.40;99.90
35258;DHT22;21385;50.878;8.050;2022-08-01T05:13:47;19.40;99.90
35258;DHT22;21385;50.878;8.050;2022-08-01T05:16:13;19.40;99.90
35258;DHT22;21385;50.878;8.050;2022-08-01T05:18:38;19.40;99.90
35258;DHT22;21385;50.878;8.050;2022-08-01T05:21:04;19.40;99.90
35258;DHT22;21385;50.878;8.050;2022-08-01T05:23:30;19.50;99.90
35258;DHT22;21385;50.878;8.050;2022-08-01T05:25:55;19.50;99.90
35258;DHT22;21385;50.878;8.050;2022-08-01T05:28:21;19.50;99.90
35258;DHT22;21385;50.878;8.050;2022-08-01T05:30:46;19.50;99.90
35258;DHT22;21385;50.878;8.050;2022-08-01T05:33:12;19.60;99.90
35258;DHT22;21385;50.878;8.050;2022-08-01T05:35:37;19.60;99.90
35258;DHT22;21385;50.878;8.050;2022-08-01T05:38:03;19.60;99.90
35258;DHT22;21385;50.878;8.050;2022-08-01T05:40:29;19.60;99.90
35258;DHT22;21385;50.878;8.050;2022-08-01T05:42:54;19.70;99.90
35258;DHT22;21385;50.878;8.050;2022-08-01T05:45:20;19.70;99.90
35258;DHT22;21385;50.878;8.050;2022-08-01T05:47:46;19.70;99.90
35258;DHT22;21385;50.878;8.050;2022-08-01T05:50:11;19.70;99.90
35258;DHT22;21385;50.878;8.050;2022-08-01T05:52:37;19.70;99.90
35258;DHT22;21385;50.878;8.050;2022-08-01T05:55:03;19.70;99.90
35258;DHT22;21385;50.878;8.050;2022-08-01T05:57:30;19.70;99.90
35258;DHT22;21385;50.878;8.050;2022-08-01T05:59:55;19.70;99.90
35258;DHT22;21385;50.878;8.050;2022-08-01T06:02:21;19.70;99.90
35258;DHT22;21385;50.878;8.050;2022-08-01T06:04:46;19.80;99.90
35258;DHT22;21385;50.878;8.050;2022-08-01T06:07:12;19.80;99.90
35258;DHT22;21385;50.878;8.050;2022-08-01T06:09:38;19.80;99.90
35258;DHT22;21385;50.878;8.050;2022-08-01T06:12:03;19.80;99.90
35258;DHT22;21385;50.878;8.050;2022-08-01T06:14:29;19.80;99.90
35258;DHT22;21385;50.878;8.050;2022-08-01T06:16:55;19.80;99.90
35258;DHT22;21385;50.878;8.050;2022-08-01T06:19:20;19.80;99.90
35258;DHT22;21385;50.878;8.050;2022-08-01T06:21:46;19.80;99.90
35258;DHT22;21385;50.878;8.050;2022-08-01T06:24:12;19.80;99.90
35258;DHT22;21385;50.878;8.050;2022-08-01T06:26:37;19.90;99.90
35258;DHT22;21385;50.878;8.050;2022-08-01T06:29:03;19.90;99.90
35258;DHT22;21385;50.878;8.050;2022-08-01T06:31:28;19.90;99.90
35258;DHT22;21385;50.878;8.050;2022-08-01T06:33:54;19.90;99.90
35258;DHT22;21385;50.878;8.050;2022-08-01T06:36:20;19.90;99.90
35258;DHT22;21385;50.878;8.050;2022-08-01T06:38:46;19.90;99.90
35258;DHT22;21385;50.878;8.050;2022-08-01T06:41:12;19.90;99.90
35258;DHT22;21385;50.878;8.050;2022-08-01T06:43:37;19.90;99.90
35258;DHT22;21385;50.878;8.050;2022-08-01T06:46:03;19.90;99.90
35258;DHT22;21385;50.878;8.050;2022-08-01T06:48:29;19.90;99.90
35258;DHT22;21385;50.878;8.050;2022-08-01T06:50:54;19.80;99.90
35258;DHT22;21385;50.878;8.050;2022-08-01T06:53:33;19.90;99.90
35258;DHT22;21385;50.878;8.050;2022-08-01T06:55:59;19.90;99.90
35258;DHT22;21385;50.878;8.050;2022-08-01T06:58:26;20.00;99.90
35258;DHT22;21385;50.878;8.050;2022-08-01T07:00:51;20.10;99.90
35258;DHT22;21385;50.878;8.050;2022-08-01T07:03:17;20.30;99.90
35258;DHT22;21385;50.878;8.050;2022-08-01T07:05:42;20.30;99.90
35258;DHT22;21385;50.878;8.050;2022-08-01T07:08:08;20.60;99.90
35258;DHT22;21385;50.878;8.050;2022-08-01T07:10:33;20.80;99.90
35258;DHT22;21385;50.878;8.050;2022-08-01T07:12:59;21.00;99.90
35258;DHT22;21385;50.878;8.050;2022-08-01T07:15:24;21.20;99.90
35258;DHT22;21385;50.878;8.050;2022-08-01T07:17:52;21.10;99.90
35258;DHT22;21385;50.878;8.050;2022-08-01T07:20:18;21.10;99.90
35258;DHT22;21385;50.878;8.050;2022-08-01T07:22:43;21.00;99.90
35258;DHT22;21385;50.878;8.050;2022-08-01T07:25:09;20.90;99.90
35258;DHT22;21385;50.878;8.050;2022-08-01T07:27:35;20.80;99.90
35258;DHT22;21385;50.878;8.050;2022-08-01T07:30:01;20.70;99.90
35258;DHT22;21385;50.878;8.050;2022-08-01T07:32:28;20.70;99.90
35258;DHT22;21385;50.878;8.050;2022-08-01T07:34:54;20.80;99.90
35258;DHT22;21385;50.878;8.050;2022-08-01T07:37:20;20.80;99.90
35258;DHT22;21385;50.878;8.050;2022-08-01T07:39:46;20.80;99.90
35258;DHT22;21385;50.878;8.050;2022-08-01T07:42:12;20.80;99.90
35258;DHT22;21385;50.878;8.050;2022-08-01T07:44:37;20.90;99.90
35258;DHT22;21385;50.878;8.050;2022-08-01T07:47:04;20.90;99.90
35258;DHT22;21385;50.878;8.050;2022-08-01T07:49:30;20.90;99.90
35258;DHT22;21385;50.878;8.050;2022-08-01T07:51:55;20.90;99.90
35258;DHT22;21385;50.878;8.050;2022-08-01T07:54:21;21.00;99.90
35258;DHT22;21385;50.878;8.050;2022-08-01T07:56:49;21.10;99.90
35258;DHT22;21385;50.878;8.050;2022-08-01T07:59:15;21.20;99.90
35258;DHT22;21385;50.878;8.050;2022-08-01T08:01:40;21.20;99.90
35258;DHT22;21385;50.878;8.050;2022-08-01T08:04:07;21.30;99.90
35258;DHT22;21385;50.878;8.050;2022-08-01T08:06:32;21.30;99.90
35258;DHT22;21385;50.878;8.050;2022-08-01T08:08:58;21.40;99.90
35258;DHT22;21385;50.878;8.050;2022-08-01T08:11:23;21.50;99.90
35258;DHT22;21385;50.878;8.050;2022-08-01T08:13:49;21.50;99.90
35258;DHT22;21385;50.878;8.050;2022-08-01T08:16:15;21.50;99.90
35258;DHT22;21385;50.878;8.050;2022-08-01T08:18:40;21.60;99.90
35258;DHT22;21385;50.878;8.050;2022-08-01T08:21:06;21.70;99.90
35258;DHT22;21385;50.878;8.050;2022-08-01T08:23:31;21.90;99.90
35258;DHT22;21385;50.878;8.050;2022-08-01T08:26:15;22.00;99.90
35258;DHT22;21385;50.878;8.050;2022-08-01T08:28:41;22.20;99.90
35258;DHT22;21385;50.878;8.050;2022-08-01T08:31:07;22.40;99.90
35258;DHT22;21385;50.878;8.050;2022-08-01T08:33:33;22.60;99.90
35258;DHT22;21385;50.878;8.050;2022-08-01T08:35:59;22.60;99.90
35258;DHT22;21385;50.878;8.050;2022-08-01T08:38:24;22.50;99.90
35258;DHT22;21385;50.878;8.050;2022-08-01T08:40:52;22.60;99.90
35258;DHT22;21385;50.878;8.050;2022-08-01T08:43:18;22.60;99.90
35258;DHT22;21385;50.878;8.050;2022-08-01T08:45:45;22.60;99.90
35258;DHT22;21385;50.878;8.050;2022-08-01T08:48:12;22.50;99.90
35258;DHT22;21385;50.878;8.050;2022-08-01T08:50:38;22.40;99.90
35258;DHT22;21385;50.878;8.050;2022-08-01T08:53:05;22.30;99.90
35258;DHT22;21385;50.878;8.050;2022-08-01T08:55:30;22.40;99.90
35258;DHT22;21385;50.878;8.050;2022-08-01T08:57:56;22.40;99.90
35258;DHT22;21385;50.878;8.050;2022-08-01T09:00:23;22.40;99.90
35258;DHT22;21385;50.878;8.050;2022-08-01T09:02:48;22.50;99.90
35258;DHT22;21385;50.878;8.050;2022-08-01T09:05:14;22.60;99.90
35258;DHT22;21385;50.878;8.050;2022-08-01T09:07:40;22.70;99.90
35258;DHT22;21385;50.878;8.050;2022-08-01T09:10:07;22.70;99.90
35258;DHT22;21385;50.878;8.050;2022-08-01T09:12:32;22.90;99.90
35258;DHT22;21385;50.878;8.050;2022-08-01T09:14:58;23.00;99.90
35258;DHT22;21385;50.878;8.050;2022-08-01T09:17:24;23.10;99.90
35258;DHT22;21385;50.878;8.050;2022-08-01T09:19:54;23.30;99.90
35258;DHT22;21385;50.878;8.050;2022-08-01T09:22:22;23.30;99.90
35258;DHT22;21385;50.878;8.050;2022-08-01T09:25:09;23.50;99.90
35258;DHT22;21385;50.878;8.050;2022-08-01T09:27:37;23.40;99.90
35258;DHT22;21385;50.878;8.050;2022-08-01T09:30:14;23.40;99.90
35258;DHT22;21385;50.878;8.050;2022-08-01T09:35:30;23.40;99.90
35258;DHT22;21385;50.878;8.050;2022-08-01T09:40:50;23.40;99.90
35258;DHT22;21385;50.878;8.050;2022-08-01T09:43:16;23.50;99.90
35258;DHT22;21385;50.878;8.050;2022-08-01T09:45:42;23.70;99.90
35258;DHT22;21385;50.878;8.050;2022-08-01T09:48:09;23.70;99.90
35258;DHT22;21385;50.878;8.050;2022-08-01T09:50:40;23.90;99.90
35258;DHT22;21385;50.878;8.050;2022-08-01T09:53:07;24.10;99.90
35258;DHT22;21385;50.878;8.050;2022-08-01T09:55:33;24.30;99.90
35258;DHT22;21385;50.878;8.050;2022-08-01T09:57:58;24.50;99.90
35258;DHT22;21385;50.878;8.050;2022-08-01T10:00:26;24.50;99.90
35258;DHT22;21385;50.878;8.050;2022-08-01T10:02:52;24.50;99.90
35258;DHT22;21385;50.878;8.050;2022-08-01T10:05:29;24.60;99.90
35258;DHT22;21385;50.878;8.050;2022-08-01T10:08:00;24.60;99.90
35258;DHT22;21385;50.878;8.050;2022-08-01T10:10:27;24.70;99.90
35258;DHT22;21385;50.878;8.050;2022-08-01T10:12:53;24.70;99.90
35258;DHT22;21385;50.878;8.050;2022-08-01T10:15:20;24.80;99.90
35258;DHT22;21385;50.878;8.050;2022-08-01T10:17:58;24.80;99.80
35258;DHT22;21385;50.878;8.050;2022-08-01T10:20:30;24.60;99.70
35258;DHT22;21385;50.878;8.050;2022-08-01T10:22:59;24.60;99.90
35258;DHT22;21385;50.878;8.050;2022-08-01T10:25:27;24.40;99.90
35258;DHT22;21385;50.878;8.050;2022-08-01T10:27:53;24.40;99.90
35258;DHT22;21385;50.878;8.050;2022-08-01T10:30:22;24.50;99.90
35258;DHT22;21385;50.878;8.050;2022-08-01T10:32:52;24.50;99.90
35258;DHT22;21385;50.878;8.050;2022-08-01T10:35:18;24.40;99.90
35258;DHT22;21385;50.878;8.050;2022-08-01T10:37:46;24.40;99.90
35258;DHT22;21385;50.878;8.050;2022-08-01T10:40:15;24.50;99.90
35258;DHT22;21385;50.878;8.050;2022-08-01T10:42:44;24.70;99.40
35258;DHT22;21385;50.878;8.050;2022-08-01T10:45:14;24.70;99.90
35258;DHT22;21385;50.878;8.050;2022-08-01T10:48:07;24.90;99.90
35258;DHT22;21385;50.878;8.050;2022-08-01T10:50:40;25.00;99.00
35258;DHT22;21385;50.878;8.050;2022-08-01T10:53:11;25.10;98.30
35258;DHT22;21385;50.878;8.050;2022-08-01T10:55:59;25.10;98.20
35258;DHT22;21385;50.878;8.050;2022-08-01T10:58:36;25.20;97.30
35258;DHT22;21385;50.878;8.050;2022-08-01T11:06:27;25.70;95.80
35258;DHT22;21385;50.878;8.050;2022-08-01T11:08:54;25.80;96.40
35258;DHT22;21385;50.878;8.050;2022-08-01T11:11:21;25.80;96.90
35258;DHT22;21385;50.878;8.050;2022-08-01T11:16:38;25.90;96.30
35258;DHT22;21385;50.878;8.050;2022-08-01T11:19:05;26.00;96.00
35258;DHT22;21385;50.878;8.050;2022-08-01T11:27:29;25.80;94.90
35258;DHT22;21385;50.878;8.050;2022-08-01T11:32:50;26.10;94.00
35258;DHT22;21385;50.878;8.050;2022-08-01T11:35:18;26.20;94.00
35258;DHT22;21385;50.878;8.050;2022-08-01T11:37:46;26.40;93.90
35258;DHT22;21385;50.878;8.050;2022-08-01T11:42:43;26.70;92.20
35258;DHT22;21385;50.878;8.050;2022-08-01T11:45:09;26.80;92.40
35258;DHT22;21385;50.878;8.050;2022-08-01T11:47:47;26.90;91.70
35258;DHT22;21385;50.878;8.050;2022-08-01T11:53:06;27.10;90.80
35258;DHT22;21385;50.878;8.050;2022-08-01T11:55:33;27.20;91.20
35258;DHT22;21385;50.878;8.050;2022-08-01T11:58:06;27.30;91.00
35258;DHT22;21385;50.878;8.050;2022-08-01T12:00:33;27.30;90.30
35258;DHT22;21385;50.878;8.050;2022-08-01T12:03:04;27.50;89.40
35258;DHT22;21385;50.878;8.050;2022-08-01T12:05:31;27.20;85.50
35258;DHT22;21385;50.878;8.050;2022-08-01T12:07:59;27.00;89.00
35258;DHT22;21385;50.878;8.050;2022-08-01T12:10:28;27.00;90.40
35258;DHT22;21385;50.878;8.050;2022-08-01T12:13:01;27.10;90.00
35258;DHT22;21385;50.878;8.050;2022-08-01T12:15:36;27.20;90.60
35258;DHT22;21385;50.878;8.050;2022-08-01T12:18:04;27.20;89.30
35258;DHT22;21385;50.878;8.050;2022-08-01T12:20:35;27.30;87.70
35258;DHT22;21385;50.878;8.050;2022-08-01T12:23:13;27.40;86.50
35258;DHT22;21385;50.878;8.050;2022-08-01T12:25:39;27.40;86.60
35258;DHT22;21385;50.878;8.050;2022-08-01T12:28:07;27.40;87.00
35258;DHT22;21385;50.878;8.050;2022-08-01T12:30:35;27.50;87.40
35258;DHT22;21385;50.878;8.050;2022-08-01T12:33:02;27.70;87.10
35258;DHT22;21385;50.878;8.050;2022-08-01T12:35:29;27.80;85.20
35258;DHT22;21385;50.878;8.050;2022-08-01T12:38:04;27.90;82.00
35258;DHT22;21385;50.878;8.050;2022-08-01T12:40:40;27.90;83.00
35258;DHT22;21385;50.878;8.050;2022-08-01T12:43:07;27.70;83.00
35258;DHT22;21385;50.878;8.050;2022-08-01T12:45:42;27.70;83.90
35258;DHT22;21385;50.878;8.050;2022-08-01T12:48:10;27.80;83.80
35258;DHT22;21385;50.878;8.050;2022-08-01T12:50:38;28.00;82.80
35258;DHT22;21385;50.878;8.050;2022-08-01T12:53:04;28.20;83.70
35258;DHT22;21385;50.878;8.050;2022-08-01T12:55:31;28.40;81.40
35258;DHT22;21385;50.878;8.050;2022-08-01T12:58:09;28.50;81.80
35258;DHT22;21385;50.878;8.050;2022-08-01T13:00:36;28.40;80.40
35258;DHT22;21385;50.878;8.050;2022-08-01T13:03:06;28.30;82.00
35258;DHT22;21385;50.878;8.050;2022-08-01T13:05:49;28.00;80.80
35258;DHT22;21385;50.878;8.050;2022-08-01T13:08:23;27.70;81.60
35258;DHT22;21385;50.878;8.050;2022-08-01T13:10:50;27.40;82.00
35258;DHT22;21385;50.878;8.050;2022-08-01T13:13:17;27.20;83.40
35258;DHT22;21385;50.878;8.050;2022-08-01T13:15:45;27.10;83.20
35258;DHT22;21385;50.878;8.050;2022-08-01T13:18:31;27.00;84.50
35258;DHT22;21385;50.878;8.050;2022-08-01T13:21:29;27.00;83.50
35258;DHT22;21385;50.878;8.050;2022-08-01T13:24:12;27.10;84.30
35258;DHT22;21385;50.878;8.050;2022-08-01T13:29:06;27.30;82.80
35258;DHT22;21385;50.878;8.050;2022-08-01T13:31:33;27.40;83.10
35258;DHT22;21385;50.878;8.050;2022-08-01T13:33:59;27.60;83.90
35258;DHT22;21385;50.878;8.050;2022-08-01T13:36:25;27.80;82.70
35258;DHT22;21385;50.878;8.050;2022-08-01T13:38:54;28.00;83.20
35258;DHT22;21385;50.878;8.050;2022-08-01T13:41:39;28.20;82.50
35258;DHT22;21385;50.878;8.050;2022-08-01T13:44:05;28.00;81.70
35258;DHT22;21385;50.878;8.050;2022-08-01T13:46:31;27.90;81.30
35258;DHT22;21385;50.878;8.050;2022-08-01T13:49:00;27.70;80.80
35258;DHT22;21385;50.878;8.050;2022-08-01T13:51:26;27.50;81.40
35258;DHT22;21385;50.878;8.050;2022-08-01T13:53:51;27.20;82.20
35258;DHT22;21385;50.878;8.050;2022-08-01T13:56:17;27.00;82.90
35258;DHT22;21385;50.878;8.050;2022-08-01T13:58:43;26.90;83.70
35258;DHT22;21385;50.878;8.050;2022-08-01T14:01:09;26.80;82.50
35258;DHT22;21385;50.878;8.050;2022-08-01T14:03:35;26.70;82.70
35258;DHT22;21385;50.878;8.050;2022-08-01T14:06:01;26.70;83.70
35258;DHT22;21385;50.878;8.050;2022-08-01T14:08:27;26.60;85.40
35258;DHT22;21385;50.878;8.050;2022-08-01T14:10:52;26.50;84.20
35258;DHT22;21385;50.878;8.050;2022-08-01T14:13:19;26.40;86.60
35258;DHT22;21385;50.878;8.050;2022-08-01T14:15:44;26.40;86.80
35258;DHT22;21385;50.878;8.050;2022-08-01T14:18:10;26.30;87.30
35258;DHT22;21385;50.878;8.050;2022-08-01T14:20:37;26.30;87.00
35258;DHT22;21385;50.878;8.050;2022-08-01T14:23:03;26.30;87.20
35258;DHT22;21385;50.878;8.050;2022-08-01T14:25:28;26.40;86.20
35258;DHT22;21385;50.878;8.050;2022-08-01T14:27:54;26.30;86.90
35258;DHT22;21385;50.878;8.050;2022-08-01T14:30:20;26.40;86.50
35258;DHT22;21385;50.878;8.050;2022-08-01T14:32:46;26.40;84.00
35258;DHT22;21385;50.878;8.050;2022-08-01T14:35:11;26.50;84.70
35258;DHT22;21385;50.878;8.050;2022-08-01T14:37:37;26.70;85.60
35258;DHT22;21385;50.878;8.050;2022-08-01T14:40:03;26.80;85.60
35258;DHT22;21385;50.878;8.050;2022-08-01T14:42:32;26.90;84.10
35258;DHT22;21385;50.878;8.050;2022-08-01T14:44:58;27.00;84.40
35258;DHT22;21385;50.878;8.050;2022-08-01T14:47:24;27.00;85.70
35258;DHT22;21385;50.878;8.050;2022-08-01T14:49:50;27.00;85.30
35258;DHT22;21385;50.878;8.050;2022-08-01T14:52:17;27.10;85.10
35258;DHT22;21385;50.878;8.050;2022-08-01T14:54:42;27.10;84.80
35258;DHT22;21385;50.878;8.050;2022-08-01T14:57:08;27.10;85.60
35258;DHT22;21385;50.878;8.050;2022-08-01T14:59:33;27.10;86.80
35258;DHT22;21385;50.878;8.050;2022-08-01T15:02:00;27.00;84.90
35258;DHT22;21385;50.878;8.050;2022-08-01T15:04:25;26.80;85.90
35258;DHT22;21385;50.878;8.050;2022-08-01T15:06:51;26.70;87.90
35258;DHT22;21385;50.878;8.050;2022-08-01T15:09:17;26.70;87.10
35258;DHT22;21385;50.878;8.050;2022-08-01T15:11:42;26.80;85.80
35258;DHT22;21385;50.878;8.050;2022-08-01T15:14:08;27.00;84.70
35258;DHT22;21385;50.878;8.050;2022-08-01T15:16:52;27.30;83.50
35258;DHT22;21385;50.878;8.050;2022-08-01T15:19:17;27.30;83.30
35258;DHT22;21385;50.878;8.050;2022-08-01T15:21:43;27.20;83.40
35258;DHT22;21385;50.878;8.050;2022-08-01T15:24:09;27.00;84.30
35258;DHT22;21385;50.878;8.050;2022-08-01T15:26:34;26.60;86.30
35258;DHT22;21385;50.878;8.050;2022-08-01T15:29:00;26.50;85.80
35258;DHT22;21385;50.878;8.050;2022-08-01T15:31:26;26.50;87.00
35258;DHT22;21385;50.878;8.050;2022-08-01T15:33:52;26.70;84.90
35258;DHT22;21385;50.878;8.050;2022-08-01T15:36:17;27.00;84.30
35258;DHT22;21385;50.878;8.050;2022-08-01T15:38:43;27.30;83.70
35258;DHT22;21385;50.878;8.050;2022-08-01T15:41:08;27.50;80.30
35258;DHT22;21385;50.878;8.050;2022-08-01T15:43:34;27.50;80.00
35258;DHT22;21385;50.878;8.050;2022-08-01T15:45:59;27.50;81.40
35258;DHT22;21385;50.878;8.050;2022-08-01T15:48:26;27.50;80.70
35258;DHT22;21385;50.878;8.050;2022-08-01T15:50:52;27.50;80.70
35258;DHT22;21385;50.878;8.050;2022-08-01T15:53:18;27.60;79.80
35258;DHT22;21385;50.878;8.050;2022-08-01T15:55:43;27.60;78.00
35258;DHT22;21385;50.878;8.050;2022-08-01T15:58:09;27.50;78.30
35258;DHT22;21385;50.878;8.050;2022-08-01T16:00:35;27.40;79.60
35258;DHT22;21385;50.878;8.050;2022-08-01T16:03:00;27.40;79.40
35258;DHT22;21385;50.878;8.050;2022-08-01T16:05:26;27.30;81.40
35258;DHT22;21385;50.878;8.050;2022-08-01T16:07:51;27.30;82.50
35258;DHT22;21385;50.878;8.050;2022-08-01T16:10:17;27.20;85.40
35258;DHT22;21385;50.878;8.050;2022-08-01T16:12:43;27.20;86.00
35258;DHT22;21385;50.878;8.050;2022-08-01T16:15:09;27.10;86.30
35258;DHT22;21385;50.878;8.050;2022-08-01T16:17:34;27.10;87.60